createdAt,value
2023-04-03T00:01:21.051Z,22.10
2023-04-03T00:04:22.758Z,21.30
2023-04-03T00:07:24.413Z,21.50
2023-04-03T00:13:27.879Z,20.60
2023-04-03T00:16:29.645Z,22.70
2023-04-03T00:22:33.080Z,24.70
2023-04-03T00:28:38.773Z,21.50
2023-04-03T00:31:41.086Z,22.90
2023-04-03T00:34:42.644Z,22.60
2023-04-03T00:37:44.781Z,22.50
2023-04-03T00:40:49.264Z,23.00
2023-04-03T00:43:50.928Z,22.80
2023-04-03T00:46:52.745Z,24.40
2023-04-03T00:52:57.038Z,22.50
2023-04-03T00:56:00.023Z,22.10
2023-04-03T00:59:05.984Z,21.70
2023-04-03T01:02:07.722Z,20.10
2023-04-03T01:08:11.861Z,19.70
2023-04-03T01:11:13.814Z,19.80
2023-04-03T01:14:15.379Z,20.50
2023-04-03T01:17:31.295Z,20.80
2023-04-03T01:20:38.661Z,21.30
2023-04-03T01:23:49.263Z,21.00
2023-04-03T01:26:50.872Z,20.60
2023-04-03T01:29:52.640Z,19.90
2023-04-03T01:35:56.121Z,20.90
2023-04-03T01:41:59.799Z,21.40
2023-04-03T01:45:05.080Z,20.30
2023-04-03T01:48:06.719Z,20.10
2023-04-03T01:51:08.379Z,21.50
2023-04-03T01:54:09.997Z,20.30
2023-04-03T01:57:11.661Z,20.50
2023-04-03T02:06:17.036Z,22.50
2023-04-03T02:09:18.661Z,20.80
2023-04-03T02:12:20.226Z,20.30
2023-04-03T02:15:21.818Z,22.20
2023-04-03T02:18:23.449Z,20.70
2023-04-03T02:21:25.105Z,19.70
2023-04-03T02:24:26.738Z,20.50
2023-04-03T02:27:28.327Z,21.20
2023-04-03T02:33:31.841Z,17.70
2023-04-03T02:36:33.491Z,19.70
2023-04-03T02:39:35.926Z,19.30
2023-04-03T02:42:37.672Z,19.70
2023-04-03T02:45:39.265Z,19.40
2023-04-03T02:48:40.946Z,19.50
2023-04-03T02:51:42.663Z,19.20
2023-04-03T02:57:45.753Z,17.70
2023-04-03T03:00:47.337Z,17.80
2023-04-03T03:03:49.283Z,18.10
2023-04-03T03:06:50.818Z,18.20
2023-04-03T03:09:52.454Z,18.10
2023-04-03T03:12:54.042Z,18.70
2023-04-03T03:15:55.781Z,18.90
2023-04-03T03:22:00.196Z,19.20
2023-04-03T03:25:02.262Z,18.20
2023-04-03T03:28:03.916Z,19.90
2023-04-03T03:31:06.207Z,18.10
2023-04-03T03:34:07.745Z,18.80
2023-04-03T03:37:09.503Z,18.90
2023-04-03T03:40:11.541Z,19.50
2023-04-03T03:43:13.149Z,21.50
2023-04-03T03:46:14.780Z,20.30
2023-04-03T03:52:17.921Z,20.30
2023-04-03T03:55:19.460Z,19.10
2023-04-03T03:58:20.982Z,19.90
2023-04-03T04:01:24.005Z,18.80
2023-04-03T04:04:25.554Z,18.90
2023-04-03T04:07:27.079Z,19.10
2023-04-03T04:10:28.704Z,20.00
2023-04-03T04:16:31.963Z,17.70
2023-04-03T04:22:35.297Z,22.20
2023-04-03T04:25:37.226Z,20.80
2023-04-03T04:28:38.953Z,19.70
2023-04-03T04:31:40.566Z,20.10
2023-04-03T04:37:44.215Z,19.00
2023-04-03T04:43:47.224Z,19.10
2023-04-03T04:46:48.807Z,19.70
2023-04-03T04:52:52.236Z,19.10
2023-04-03T04:55:54.166Z,20.40
2023-04-03T04:58:55.921Z,19.60
2023-04-03T05:04:59.028Z,18.80
2023-04-03T05:08:00.717Z,19.70
2023-04-03T05:14:03.798Z,20.40
2023-04-03T05:17:05.683Z,21.30
2023-04-03T05:20:08.060Z,21.90
2023-04-03T05:23:10.854Z,22.00
2023-04-03T05:26:12.459Z,22.10
2023-04-03T05:29:14.113Z,19.90
2023-04-03T05:35:17.322Z,22.30
2023-04-03T05:41:20.758Z,21.00
2023-04-03T05:47:23.992Z,23.10
2023-04-03T05:50:25.977Z,22.00
2023-04-03T05:53:32.760Z,22.90
2023-04-03T05:56:34.312Z,23.10
2023-04-03T05:59:35.994Z,24.30
2023-04-03T06:02:37.734Z,24.60
2023-04-03T06:08:41.494Z,23.00
2023-04-03T06:11:43.251Z,25.60
2023-04-03T06:17:46.402Z,21.80
2023-04-03T06:20:48.258Z,22.10
2023-04-03T06:23:49.962Z,20.60
2023-04-03T06:26:52.293Z,23.90
2023-04-03T06:29:53.944Z,23.90
2023-04-03T06:32:55.659Z,20.80
2023-04-03T06:39:00.038Z,21.10
2023-04-03T06:45:03.431Z,21.60
2023-04-03T06:48:05.570Z,20.90
2023-04-03T06:51:07.171Z,21.00
2023-04-03T06:54:09.156Z,23.70
2023-04-03T06:57:10.845Z,21.30
2023-04-03T07:00:13.142Z,22.60
2023-04-03T07:03:15.119Z,18.60
2023-04-03T07:06:18.357Z,17.30
2023-04-03T07:09:20.010Z,19.60
2023-04-03T07:12:21.694Z,18.90
2023-04-03T07:18:25.745Z,16.90
2023-04-03T07:21:27.339Z,19.60
2023-04-03T07:27:30.878Z,19.60
2023-04-03T07:30:32.573Z,18.50
2023-04-03T07:36:36.052Z,19.20
2023-04-03T07:42:39.367Z,17.40
2023-04-03T07:45:41.528Z,19.70
2023-04-03T07:48:43.306Z,16.80
2023-04-03T07:54:46.868Z,18.10
2023-04-03T07:57:48.437Z,17.80
2023-04-03T08:00:50.180Z,19.10
2023-04-03T08:06:53.794Z,17.70
2023-04-03T08:12:56.938Z,17.90
2023-04-03T08:15:58.759Z,21.70
2023-04-03T08:19:00.378Z,15.40
2023-04-03T08:22:02.108Z,16.30
2023-04-03T08:28:05.549Z,17.60
2023-04-03T08:31:09.723Z,20.30
2023-04-03T08:34:11.462Z,16.70
2023-04-03T08:37:13.091Z,17.30
2023-04-03T08:40:16.737Z,17.40
2023-04-03T08:43:29.962Z,21.10
2023-04-03T08:46:43.983Z,18.40
2023-04-03T08:50:11.026Z,18.70
2023-04-03T08:53:21.625Z,18.40
2023-04-03T08:56:23.869Z,20.70
2023-04-03T08:59:30.190Z,20.70
2023-04-03T09:02:44.764Z,18.50
2023-04-03T09:05:46.388Z,17.10
2023-04-03T09:09:03.151Z,17.90
2023-04-03T09:12:20.554Z,18.70
2023-04-03T09:15:35.390Z,20.00
2023-04-03T09:18:46.046Z,17.60
2023-04-03T09:21:47.545Z,16.50
2023-04-03T09:24:56.966Z,18.20
2023-04-03T09:27:58.924Z,18.90
2023-04-03T09:31:01.497Z,21.20
2023-04-03T09:34:07.400Z,19.10
2023-04-03T09:37:08.995Z,16.60
2023-04-03T09:40:25.833Z,19.50
2023-04-03T09:43:32.732Z,22.60
2023-04-03T09:46:35.353Z,17.70
2023-04-03T09:49:37.025Z,17.90
2023-04-03T09:52:39.472Z,22.10
2023-04-03T09:55:45.535Z,22.90
2023-04-03T09:59:00.840Z,22.10
2023-04-03T10:02:30.567Z,24.30
2023-04-03T10:05:35.816Z,22.90
2023-04-03T10:08:37.419Z,22.10
2023-04-03T10:11:39.098Z,20.40
2023-04-03T10:14:54.510Z,21.20
2023-04-03T10:18:14.420Z,21.30
2023-04-03T10:21:42.677Z,24.50
2023-04-03T10:25:04.644Z,20.50
2023-04-03T10:28:37.729Z,23.30
2023-04-03T10:32:04.193Z,22.00
2023-04-03T10:35:11.241Z,16.60
2023-04-03T10:38:31.338Z,20.40
2023-04-03T10:41:51.531Z,16.80
2023-04-03T10:45:12.262Z,19.30
2023-04-03T10:48:54.942Z,19.40
2023-04-03T10:52:15.335Z,17.60
2023-04-03T10:55:32.864Z,19.40
2023-04-03T10:58:37.449Z,17.60
2023-04-03T11:01:41.798Z,17.90
2023-04-03T11:04:46.353Z,18.70
2023-04-03T11:07:51.188Z,17.70
2023-04-03T11:10:55.724Z,18.30
2023-04-03T11:14:14.427Z,15.60
2023-04-03T11:17:19.100Z,17.00
2023-04-03T11:20:24.525Z,17.80
2023-04-03T11:23:30.237Z,16.10
2023-04-03T11:26:38.301Z,18.40
2023-04-03T11:29:41.618Z,15.40
2023-04-03T11:32:55.201Z,15.70
2023-04-03T11:36:19.072Z,16.40
2023-04-03T11:39:33.048Z,14.90
2023-04-03T11:42:38.541Z,16.70
2023-04-03T11:45:49.556Z,13.90
2023-04-03T11:48:51.839Z,18.60
2023-04-03T11:51:53.462Z,16.50
2023-04-03T11:54:55.232Z,17.60
2023-04-03T12:01:10.710Z,15.00
2023-04-03T12:04:14.531Z,15.10
2023-04-03T12:07:19.575Z,14.30
2023-04-03T12:10:31.727Z,18.20
2023-04-03T12:13:34.291Z,17.40
2023-04-03T12:16:38.784Z,20.50
2023-04-03T12:19:42.841Z,17.50
2023-04-03T12:23:09.080Z,17.80
2023-04-03T12:26:22.944Z,17.60
2023-04-03T12:29:33.543Z,16.80
2023-04-03T12:32:41.245Z,17.50
2023-04-03T12:36:13.009Z,17.20
2023-04-03T12:39:23.852Z,22.10
2023-04-03T12:42:35.888Z,14.50
2023-04-03T12:45:53.586Z,14.80
2023-04-03T12:48:58.729Z,17.10
2023-04-03T12:52:00.977Z,14.50
2023-04-03T12:55:04.004Z,19.70
2023-04-03T12:58:22.606Z,14.70
2023-04-03T13:01:26.820Z,23.20
2023-04-03T13:04:29.572Z,19.80
2023-04-03T13:07:35.188Z,17.90
2023-04-03T13:10:49.293Z,16.90
2023-04-03T13:14:13.891Z,19.90
2023-04-03T13:17:17.046Z,17.40
2023-04-03T13:20:24.664Z,19.10
2023-04-03T13:23:26.269Z,15.00
2023-04-03T13:29:37.116Z,17.00
2023-04-03T13:32:38.841Z,13.70
2023-04-03T13:35:42.203Z,16.10
2023-04-03T13:38:44.047Z,19.10
2023-04-03T13:41:51.418Z,15.40
2023-04-03T13:45:28.307Z,18.30
2023-04-03T13:48:36.595Z,15.30
2023-04-03T13:51:39.752Z,18.40
2023-04-03T13:54:41.489Z,17.00
2023-04-03T13:57:56.146Z,19.90
2023-04-03T14:01:18.746Z,14.20
2023-04-03T14:04:27.500Z,14.20
2023-04-03T14:07:30.816Z,14.90
2023-04-03T14:10:32.447Z,17.30
2023-04-03T14:13:34.045Z,18.90
2023-04-03T14:16:41.530Z,18.40
2023-04-03T14:19:43.368Z,19.00
2023-04-03T14:22:45.531Z,16.60
2023-04-03T14:25:47.492Z,21.50
2023-04-03T14:28:53.645Z,20.30
2023-04-03T14:32:07.390Z,15.70
2023-04-03T14:35:17.088Z,17.10
2023-04-03T14:38:28.760Z,17.00
2023-04-03T14:41:30.605Z,19.80
2023-04-03T14:44:32.202Z,13.90
2023-04-03T14:47:34.326Z,16.30
2023-04-03T14:50:36.280Z,15.10
2023-04-03T14:53:39.390Z,15.40
2023-04-03T14:56:41.344Z,15.70
2023-04-03T14:59:44.674Z,17.60
2023-04-03T15:02:47.601Z,17.20
2023-04-03T15:05:50.377Z,13.90
2023-04-03T15:08:51.954Z,18.30
2023-04-03T15:11:55.099Z,15.80
2023-04-03T15:15:01.760Z,16.30
2023-04-03T15:18:04.718Z,14.80
2023-04-03T15:21:06.711Z,15.20
2023-04-03T15:24:10.327Z,21.80
2023-04-03T15:27:13.343Z,16.30
2023-04-03T15:30:18.166Z,14.30
2023-04-03T15:33:19.949Z,15.30
2023-04-03T15:36:33.310Z,21.00
2023-04-03T15:39:36.684Z,16.50
2023-04-03T15:42:39.347Z,12.80
2023-04-03T15:45:41.555Z,16.10
2023-04-03T15:48:43.384Z,16.60
2023-04-03T15:51:45.130Z,17.70
2023-04-03T15:57:48.256Z,16.70
2023-04-03T16:03:51.514Z,17.80
2023-04-03T16:06:53.353Z,22.40
2023-04-03T16:09:54.959Z,17.10
2023-04-03T16:12:56.689Z,19.00
2023-04-03T16:15:58.428Z,18.40
2023-04-03T16:22:01.579Z,25.40
2023-04-03T16:25:04.808Z,21.10
2023-04-03T16:28:06.594Z,23.40
2023-04-03T16:31:08.537Z,21.40
2023-04-03T16:34:10.792Z,22.00
2023-04-03T16:37:13.184Z,25.30
2023-04-03T16:40:15.272Z,23.00
2023-04-03T16:43:17.148Z,21.70
2023-04-03T16:46:18.976Z,23.20
2023-04-03T16:52:22.316Z,22.10
2023-04-03T16:55:24.184Z,27.30
2023-04-03T16:58:25.956Z,21.20
2023-04-03T17:01:27.708Z,24.50
2023-04-03T17:04:29.624Z,21.40
2023-04-03T17:10:33.077Z,23.50
2023-04-03T17:13:35.129Z,24.70
2023-04-03T17:16:37.944Z,25.80
2023-04-03T17:19:40.697Z,27.20
2023-04-03T17:22:42.403Z,25.40
2023-04-03T17:28:46.369Z,26.50
2023-04-03T17:31:48.930Z,23.60
2023-04-03T17:34:50.906Z,28.80
2023-04-03T17:37:52.629Z,26.30
2023-04-03T17:40:58.313Z,26.10
2023-04-03T17:44:00.161Z,20.90
2023-04-03T17:50:03.924Z,26.80
2023-04-03T17:53:05.519Z,28.80
2023-04-03T17:59:16.761Z,37.70
2023-04-03T18:02:18.602Z,34.00
2023-04-03T18:05:20.524Z,29.50
2023-04-03T18:11:27.332Z,34.60
2023-04-03T18:14:29.331Z,35.70
2023-04-03T18:17:31.086Z,34.30
2023-04-03T18:23:36.593Z,39.10
2023-04-03T18:26:38.690Z,36.00
2023-04-03T18:32:42.911Z,28.70
2023-04-03T18:35:45.035Z,29.70
2023-04-03T18:41:49.140Z,30.70
2023-04-03T18:44:53.862Z,32.90
2023-04-03T18:47:55.930Z,36.00
2023-04-03T18:50:57.759Z,35.40
2023-04-03T18:53:59.565Z,34.60
2023-04-03T18:57:01.540Z,36.00
2023-04-03T19:06:07.631Z,44.00
2023-04-03T19:09:09.570Z,44.40
2023-04-03T19:15:14.560Z,48.00
2023-04-03T19:18:16.338Z,46.30
2023-04-03T19:21:18.372Z,48.50
2023-04-03T19:24:20.205Z,50.00
2023-04-03T19:30:23.621Z,51.20
2023-04-03T19:33:26.345Z,54.90
2023-04-03T19:36:28.244Z,62.50
2023-04-03T19:42:34.195Z,51.50
2023-04-03T19:48:37.646Z,47.40
2023-04-03T19:51:39.282Z,49.70
2023-04-03T19:54:41.074Z,59.60
2023-04-03T19:57:42.628Z,58.40
2023-04-03T20:00:44.727Z,71.20
2023-04-03T20:06:48.242Z,63.30
2023-04-03T20:12:51.878Z,54.60
2023-04-03T20:15:53.724Z,63.00
2023-04-03T20:18:56.536Z,62.10
2023-04-03T20:22:00.823Z,63.90
2023-04-03T20:25:06.431Z,67.90
2023-04-03T20:28:08.684Z,52.10
2023-04-03T20:31:10.423Z,50.90
2023-04-03T20:37:13.903Z,44.10
2023-04-03T20:40:15.575Z,51.10
2023-04-03T20:43:17.145Z,53.10
2023-04-03T20:46:18.912Z,48.30
2023-04-03T20:49:21.743Z,52.20
2023-04-03T20:52:23.380Z,49.90
2023-04-03T20:55:25.046Z,48.90
2023-04-03T20:58:30.125Z,43.80
2023-04-03T21:01:32.402Z,46.60
2023-04-03T21:04:39.976Z,44.10
2023-04-03T21:08:19.830Z,45.70
2023-04-03T21:11:59.387Z,39.10
2023-04-03T21:15:39.033Z,40.40
2023-04-03T21:18:55.886Z,38.60
2023-04-03T21:22:00.660Z,36.00
2023-04-03T21:25:02.353Z,41.50
2023-04-03T21:31:05.585Z,41.60
2023-04-03T21:37:08.945Z,47.90
2023-04-03T21:40:10.784Z,54.70
2023-04-03T21:46:14.325Z,46.50
2023-04-03T21:49:15.912Z,51.20
2023-04-03T21:52:17.586Z,46.40
2023-04-03T21:55:19.302Z,42.50
2023-04-03T21:58:21.427Z,42.30
2023-04-03T22:01:23.016Z,37.60
2023-04-03T22:04:24.585Z,38.60
2023-04-03T22:07:26.517Z,39.60
2023-04-03T22:10:28.040Z,35.50
2023-04-03T22:13:30.536Z,37.30
2023-04-03T22:16:32.386Z,34.30
2023-04-03T22:19:35.506Z,33.60
2023-04-03T22:22:37.003Z,34.70
2023-04-03T22:25:38.516Z,30.80
2023-04-03T22:28:43.610Z,29.80
2023-04-03T22:31:45.243Z,33.90
2023-04-03T22:34:46.817Z,42.60
2023-04-03T22:37:48.380Z,37.00
2023-04-03T22:41:00.265Z,31.50
2023-04-03T22:47:03.524Z,33.50
2023-04-03T22:50:05.836Z,29.90
2023-04-03T22:53:07.408Z,25.50
2023-04-03T22:56:08.967Z,28.20
2023-04-03T22:59:10.559Z,25.20
2023-04-03T23:02:12.342Z,28.50
2023-04-03T23:05:16.983Z,29.70
2023-04-03T23:11:21.062Z,28.50
2023-04-03T23:14:22.760Z,34.10
2023-04-03T23:17:24.399Z,28.50
2023-04-03T23:20:25.938Z,27.30
2023-04-03T23:23:27.553Z,28.30
2023-04-03T23:26:29.169Z,28.50
2023-04-03T23:29:33.805Z,28.80
2023-04-03T23:32:35.400Z,28.90
2023-04-03T23:35:50.716Z,28.90
2023-04-03T23:38:56.247Z,27.80
2023-04-03T23:41:58.032Z,24.00
2023-04-03T23:44:59.746Z,27.60
2023-04-03T23:48:01.360Z,28.80
2023-04-03T23:51:03.094Z,24.10
2023-04-03T23:57:06.169Z,26.60
